Aeroporto :
LOGIN :

Iscrizione | Disclaimer

   EN    FR    IT 

 










Sommario :    VFR   VFR Marginale   IFR   IFR Intensivo   IFR Molto Intensivo
Visibilità : 
Base nubi : 
>= 8 km
>= 3000ft
5 / 8 km
1000 / 3000 ft
1500m / 5 km
500 / 1000 ft
800 / 1500m
200 / 500 ft
< 800m
< 200 ft
Simboli :   Temporali  Nebbia  Neve Forte  Precipitazioni Forti  Vento > 20 kt
SIGMETs :   Varie  Temporali  Ghiacco  Turbolenza  Onda orograficha  Ceneri Vulcaniche






- Altitudine del aeroporto : 194 ft
- Codice IATA : IEG


EPZG - Zielona Gora Babimost

ULTIMO METAR :
  • 020600Z 13005KT 4000 BR OVC038 10/10 Q1007

METARs OBSOLETI :
  • 020530Z 13005KT 090V160 4000 BR OVC038 10/10 Q1007
  • 020500Z 11004KT 080V150 4200 BR OVC041 10/10 Q1007
  • 020430Z 11004KT 070V140 4200 BR OVC042 10/10 Q1007
  • 012100Z 14006KT 100V160 6000 -RA NSC 11/11 Q1008
  • 020400Z 12003KT 090V160 4000 BR OVC040 10/10 Q1007

TAF TAF EPZG
Valido dal 02 a 06 ore il 02 a 15 ore UTC


020530Z 0206/0215 12008KT 4000 BR OVC033
BECMG 0207/0209 9999



MetMap, La meteo Aeronautica in un colpo d'occhio ! - Copyright ORBIFLY Dicembre 2007 - Disclaimer

ORBIFLY MET'MAP TEAM :

Programmazione e sviluppo : Alexandra Zaïnal
Concezione : Baudouin d'Aumeries
Supporto tecnico e logistico : Manuel Goepfert
Aiuto : Marc-Olivier Méhu
Aiuto per la traduzione : Arnaldo La Scala




FONTI E CREDITI :

   NOAA